createdAt,value
2023-11-12T00:03:23.634Z,58.10
2023-11-12T00:18:25.934Z,56.37
2023-11-12T00:33:28.663Z,55.67
2023-11-12T00:48:30.760Z,52.03
2023-11-12T01:03:34.817Z,52.20
2023-11-12T01:18:39.948Z,54.40
2023-11-12T01:33:42.033Z,53.77
2023-11-12T01:48:44.270Z,51.03
2023-11-12T02:03:46.824Z,50.03
2023-11-12T02:18:49.096Z,48.73
2023-11-12T02:33:51.540Z,46.70
2023-11-12T02:49:09.138Z,45.13
2023-11-12T03:04:11.232Z,39.97
2023-11-12T03:19:13.335Z,37.63
2023-11-12T03:34:15.900Z,39.13
2023-11-12T03:49:18.363Z,36.80
2023-11-12T04:04:20.433Z,36.90
2023-11-12T04:19:22.564Z,33.67
2023-11-12T04:34:24.621Z,34.20
2023-11-12T04:49:26.781Z,32.13
2023-11-12T05:04:30.059Z,34.90
2023-11-12T05:19:32.354Z,34.43
2023-11-12T05:34:34.385Z,37.27
2023-11-12T05:49:36.622Z,37.07
2023-11-12T06:04:39.139Z,36.07
2023-11-12T06:19:41.222Z,37.87
2023-11-12T06:34:43.483Z,36.73
2023-11-12T06:49:47.362Z,32.40
2023-11-12T07:04:52.371Z,32.07
2023-11-12T07:19:56.705Z,26.77
2023-11-12T07:34:58.796Z,23.03
2023-11-12T07:50:02.457Z,22.93
2023-11-12T08:05:09.245Z,18.97
2023-11-12T08:20:12.174Z,20.48
2023-11-12T08:35:14.404Z,22.27
2023-11-12T08:50:16.634Z,25.00
2023-11-12T09:05:18.706Z,22.40
2023-11-12T09:20:20.815Z,20.23
2023-11-12T09:35:22.905Z,18.63
2023-11-12T09:50:26.575Z,19.20
2023-11-12T10:05:32.785Z,18.63
2023-11-12T10:20:42.506Z,21.77
2023-11-12T10:35:45.241Z,25.33
2023-11-12T10:50:47.344Z,25.37
2023-11-12T11:05:50.212Z,24.03
2023-11-12T11:21:04.638Z,21.43
2023-11-12T11:36:09.556Z,22.27
2023-11-12T11:51:38.737Z,23.13
2023-11-12T12:06:48.550Z,29.27
2023-11-12T12:21:56.344Z,27.77
2023-11-12T12:36:58.640Z,27.97
2023-11-12T12:52:02.007Z,29.70
2023-11-12T13:07:08.501Z,32.73
2023-11-12T13:22:11.599Z,35.33
2023-11-12T13:37:14.366Z,31.87
2023-11-12T13:52:18.647Z,32.87
2023-11-12T14:07:21.292Z,35.63
2023-11-12T14:22:23.608Z,35.60
2023-11-12T14:37:26.315Z,31.17
2023-11-12T14:52:29.153Z,32.97
2023-11-12T15:07:31.354Z,30.70
2023-11-12T15:22:33.931Z,27.63
2023-11-12T15:37:40.112Z,32.33
2023-11-12T15:52:43.705Z,30.67
2023-11-12T16:07:50.051Z,30.07
2023-11-12T16:22:53.962Z,31.50
2023-11-12T16:37:57.804Z,30.73
2023-11-12T16:53:00.688Z,47.73
2023-11-12T17:08:06.229Z,29.13
2023-11-12T17:23:16.672Z,30.33
2023-11-12T17:38:19.981Z,30.03
2023-11-12T17:53:23.511Z,28.93
2023-11-12T18:08:28.702Z,27.83
2023-11-12T18:23:32.214Z,27.87
2023-11-12T18:38:38.490Z,28.13
2023-11-12T18:53:42.311Z,31.93
2023-11-12T19:08:45.996Z,27.67
2023-11-12T19:23:49.371Z,32.43
2023-11-12T19:38:53.591Z,30.57
2023-11-12T19:53:59.439Z,31.20
2023-11-12T20:09:03.135Z,27.80
2023-11-12T20:24:07.460Z,24.63
2023-11-12T20:39:17.258Z,22.13
2023-11-12T20:54:20.726Z,21.50
2023-11-12T21:09:23.361Z,21.87
2023-11-12T21:24:27.694Z,23.03
2023-11-12T21:39:29.896Z,25.27
2023-11-12T21:54:32.055Z,24.37
2023-11-12T22:09:34.170Z,25.93
2023-11-12T22:24:36.604Z,24.60
2023-11-12T22:39:38.711Z,22.57
2023-11-12T22:54:42.700Z,21.80
2023-11-12T23:09:46.319Z,24.17
2023-11-12T23:24:48.665Z,25.03
2023-11-12T23:39:50.693Z,23.93
2023-11-12T23:54:53.186Z,23.10
